Tiempo atmosférico en la estación meteorológica de Antequera, Málaga (400 m.)

Fecha
DESCASC
Temp. máxima en grados centígrados (hora)
DESCASC
Temp. mínima en grados centígrados (hora)
DESCASC
Temp. media en grados centígrados
DESCASC
Racha de viento máxima en m/sg (hora)
DESCASC
Velocidad máxima media en intervalos de 10 minutos(hora)
DESCASC
Precipitaciones diarias en mm
DESCASC
Precipitaciones de 00:00 a 06:00 en mm
DESCASC
Precipitaciones de 06:00 a 12:00 en mm
DESCASC
Precipitaciones de 12:00 a 18:00 en mm
DESCASC
Precipitaciones de 18:00 a 24:00 en mm
DESCASC
23-11-2017 -- (--) -- (--) -- 5 (16:20) 2.78 (16:30) -- 0 -- 0 0
22-11-2017 -- (--) -- (--) -- 4.72 (15:10) 1.67 (01:50) 0 0 0 0 0
21-11-2017 -- (--) -- (--) -- 4.72 (15:10) 2.5 (15:20) 0 0 0 0 0
20-11-2017 -- (--) -- (--) -- 8.06 (14:30) 3.89 (13:20) 0 0 0 0 0
19-11-2017 -- (--) -- (--) -- 11.11 (11:40) 5.56 (11:30) 0 0 0 0 0
18-11-2017 -- (--) -- (--) -- 7.78 (14:00) 3.61 (13:10) -- 0 0 0 --
17-11-2017 -- (--) -- (--) -- 4.17 (15:10) 1.94 (17:20) 0 0 0 0 0
16-11-2017 -- (--) -- (--) -- 3.61 (15:20) 1.39 (05:50) 0 0 0 0 0
15-11-2017 -- (--) -- (--) -- 10 (03:20) 4.72 (06:50) 0 0 0 0 0
14-11-2017 -- (--) -- (--) -- 6.39 (23:40) 2.5 (00:30) 0 0 0 0 0
13-11-2017 -- (--) -- (--) -- 6.67 (16:40) 3.89 (21:20) 0 0 0 0 0
12-11-2017 -- (--) -- (--) -- 5.56 (16:40) 3.06 (16:40) 0 0 0 0 0
11-11-2017 -- (--) -- (--) -- 6.39 (15:20) 2.78 (16:00) 0 0 0 0 0
10-11-2017 -- (--) -- (--) -- 9.72 (16:00) 5.28 (15:50) 0 0 0 0 0
09-11-2017 -- (--) -- (--) -- 6.67 (15:30) 3.06 (08:10) 0 0 0 0 0
08-11-2017 -- (--) -- (--) -- 3.33 (17:50) 1.94 (20:30) 0 0 0 0 0
07-11-2017 -- (--) -- (--) -- 4.72 (15:10) 1.94 (14:30) 0 0 0 0 0
06-11-2017 -- (--) -- (--) -- 5.83 (18:40) 3.61 (18:30) 0 0 0 0 0
05-11-2017 -- (--) -- (--) -- 5.28 (15:40) 2.5 (10:10) 0 0 0 0 0
04-11-2017 -- (--) -- (--) -- 10.83 (14:30) 3.89 (15:40) 4.2 0.5 3.6 0.1 0
03-11-2017 -- (--) -- (--) -- 13.61 (18:10) 6.11 (02:00) 30.1 0 0 0 30.1
02-11-2017 -- (--) -- (--) -- 11.67 (01:30) 6.67 (01:10) 0 0 0 0 0
01-11-2017 -- (--) -- (--) -- 12.5 (07:30) 6.39 (07:40) 0 0 0 0 0
31-10-2017 -- (--) -- (--) -- 11.67 (23:59) 5.83 (10:40) 0 0 0 0 0
30-10-2017 -- (--) -- (--) -- 5.83 (14:40) 2.5 (14:10) 0 0 0 0 0
29-10-2017 -- (--) -- (--) -- 17.78 (11:20) 4.72 (00:10) 0 0 0 0 0
28-10-2017 -- (--) -- (--) -- 10 (22:00) 4.72 (14:10) 0 0 0 0 0
27-10-2017 -- (--) -- (--) -- 10.28 (01:30) 6.39 (02:20) 0 0 0 0 0
26-10-2017 -- (--) -- (--) -- 10 (12:20) 5.56 (11:20) 0 0 0 0 0

Gráficas

Temp. máximas Temp. mínimas Temp. medias Precipitaciones Rachas de viento máximas Velocidades máximas media en intervalos de 10 minutos

Datos horarios

Fecha y hora oficial Temperatura (ºC) Velocidad del viento (km/h) Dirección del viento Racha (km/h) Dirección de racha Precipitación (mm) Presión (hPa) Tendencia (hPa) Humedad (%)
2017-11-24 23:00:00 -- 0 Calma 6 Este 0 972.6 0.2 64
2017-11-24 22:00:00 -- 0 Calma 4 Este 0 972.7 0.7 54
2017-11-24 21:00:00 -- 0 Calma 6 Oeste 0 972.8 1.1 49
2017-11-24 20:00:00 -- 0 Calma 5 Noroeste 0 972.4 0.9 44
2017-11-24 19:00:00 -- 2 Oeste 8 Noroeste 0 972 0.7 40
2017-11-24 18:00:00 -- 0 Calma 12 Sur 0 971.7 0.2 37
2017-11-24 17:00:00 -- 7 Sudeste 14 Sur 0 971.5 -0.5 32
2017-11-24 16:00:00 -- 3 Sur 12 Sudoeste 0 971.3 -1 30
2017-11-24 15:00:00 -- 2 Oeste 9 Sudeste 0 971.5 -1.8 31
2017-11-24 14:00:00 -- 2 Sudeste 10 Sudeste 0 972 -1.6 34
2017-11-24 13:00:00 -- 0 Calma 6 Sur 0 972.3 -1.3 40
2017-11-24 12:00:00 -- 0 Calma 6 Este 0 973.3 0.2 50
2017-11-24 11:00:00 -- 4 Nordeste 8 Nordeste 0 973.6 0.9 58
2017-11-24 10:00:00 -- 0 Calma 4 Sudeste 0 973.6 1.2 84
2017-11-24 09:00:00 -- 0 Calma 3 Este 0 973.1 0.8 89
2017-11-24 08:00:00 -- 3 Oeste 6 Oeste 0 972.7 0.6 90
2017-11-24 07:00:00 -- 0 Calma 5 Este 0 972.4 0.1 85
2017-11-24 06:00:00 -- 0 Calma 6 Noroeste 0 972.3 0.1 84
2017-11-24 05:00:00 -- 0 Calma 3 Nordeste 0 972.1 -0.4 83
2017-11-24 04:00:00 -- 0 Calma 4 Oeste 0 972.3 -0.5 84
2017-11-24 03:00:00 -- 0 Calma 4 Nordeste 0 972.2 -0.6 84
2017-11-24 02:00:00 -- 0 Calma 7 Oeste 0 972.5 -0.4 81
2017-11-24 01:00:00 -- 0 Calma 12 Oeste 0 972.8 -0.2 80
2017-11-24 00:00:00 -- 2 Nordeste 6 Este 0 972.8 0.1 77
2017-11-23 23:00:00 -- 4 Nordeste 6 Nordeste 0 972.9 0.5 72
2017-11-23 22:00:00 -- 0 Calma 11 Noroeste 0 973 1.2 65
2017-11-23 21:00:00 -- 5 Oeste 11 Noroeste 0 972.7 1.4 57
2017-11-23 20:00:00 -- 6 Noroeste 11 Noroeste 0 972.4 1.5 48
2017-11-23 19:00:00 -- 3 Sudoeste 12 Sudoeste 0 971.8 1 43
2017-11-23 18:00:00 -- 2 Sudoeste 13 Sur 0 971.3 0.5 39
2017-11-23 17:00:00 -- 5 Sur 18 Sudeste 0 970.9 -0.1 35
2017-11-23 16:00:00 -- 6 Sudeste 15 Sudeste 0 970.8 -0.7 33
2017-11-23 15:00:00 -- 0 Calma 10 Sur 0 970.8 -- 34
2017-11-23 14:00:00 -- 0 Calma 8 Oeste 0 971 -1.2 39
2017-11-23 13:00:00 -- 0 Calma 6 Sudeste 0 971.5 -0.2 48
2017-11-23 12:00:00 -- 2 Este 6 Este 0 -- -- --
2017-11-23 11:00:00 -- 0 Calma 8 Oeste 0 972.2 1.8 70
2017-11-23 10:00:00 -- 0 Calma 4 Sudeste 0 971.7 2 86
2017-11-23 09:00:00 -- 0 Calma -- -- -- 971.2 2 95
2017-11-23 08:00:00 -- 0 Calma 4 Noroeste 0 970.4 1.6 94
2017-11-23 07:00:00 -- 0 Calma 4 Este 0 969.7 0.9 93
2017-11-23 06:00:00 -- 3 Nordeste 5 Oeste 0 969.2 0.5 92
2017-11-23 05:00:00 -- 0 Calma 7 Noroeste 0 968.8 0 86
2017-11-23 04:00:00 -- 0 Calma 8 Oeste 0 968.8 -0.2 85
2017-11-23 03:00:00 -- 0 Calma -- -- 0 968.7 -0.3 83
2017-11-23 02:00:00 -- 0 Calma 4 Este 0 968.8 0.1 80
2017-11-23 01:00:00 -- 0 Calma 6 Noroeste 0 969 0.3 74
2017-11-23 00:00:00 -- 3 Noroeste 9 Noroeste 0 969 0.7 68
2017-11-22 23:00:00 -- 0 Calma 8 Nordeste 0 968.7 0.7 64
2017-11-22 22:00:00 -- 5 Nordeste 7 Nordeste 0 968.7 1 55
2017-11-22 21:00:00 -- 0 Calma 6 Oeste 0 968.3 -- 51
2017-11-22 20:00:00 -- 2 Oeste 5 Oeste 0 968 1.2 46
2017-11-22 19:00:00 -- 4 Noroeste 10 Oeste 0 967.7 1 39
2017-11-22 18:00:00 -- -- -- -- -- -- -- -- --
2017-11-22 17:00:00 -- 5 Sur 13 Sudeste 0 966.8 -0.8 28
2017-11-22 16:00:00 -- 6 Sudeste 17 Sudeste 0 966.7 -1.5 27
2017-11-22 15:00:00 -- 5 Sur 14 Sudeste 0 967 -2.1 28
2017-11-22 14:00:00 -- 2 Sudoeste 8 Sur 0 967.6 -2.1 32
2017-11-22 13:00:00 -- 0 Calma 6 Este 0 968.2 -1.2 39
2017-11-22 12:00:00 -- 0 Calma 10 Nordeste 0 969.1 0.2 52
2017-11-22 11:00:00 -- 3 Este 6 Este 0 969.7 1.2 66
2017-11-22 10:00:00 -- 0 Calma 5 Este 0 969.4 0.7 81
2017-11-22 09:00:00 -- 3 Nordeste 12 Noroeste 0 968.9 0.2 91
2017-11-22 08:00:00 -- 0 Calma 7 Norte 0 968.5 -0.5 95
2017-11-22 07:00:00 -- 0 Calma 10 Noroeste 0 968.7 -0.6 90
2017-11-22 06:00:00 -- 0 Calma 6 Nordeste 0 968.7 -1 90
2017-11-22 05:00:00 -- 0 Calma 5 Este 0 969 -1 86
2017-11-22 04:00:00 -- 4 Nordeste 6 Este 0 969.3 -1.4 85
2017-11-22 03:00:00 -- 0 Calma 9 Noroeste 0 969.7 -1.3 82
2017-11-22 02:00:00 -- 6 Nordeste 9 Nordeste 0 970 -1.1 79
2017-11-22 01:00:00 -- 0 Calma 0 Calma 0 970.7 -0.4 70
2017-11-22 00:00:00 -- 3 Nordeste 6 Nordeste 0 971 -0.3 65
2017-11-21 23:00:00 -- 0 Calma -- -- 0 971.1 -0.1 59
2017-11-21 22:00:00 -- 0 Calma 6 Oeste 0 971.1 0.1 51
2017-11-21 21:00:00 -- 4 Oeste 7 Oeste 0 971.3 0.6 44
2017-11-21 20:00:00 -- 4 Oeste 6 Oeste 0 971.2 0.4 42
2017-11-21 19:00:00 -- 2 Oeste 6 Sur 0 971 0.3 38
2017-11-21 18:00:00 -- 2 Sudoeste 11 Sur 0 970.7 -0.4 32
2017-11-21 17:00:00 -- 4 Sudeste 14 Sudeste 0 970.8 -0.9 27
2017-11-21 16:00:00 -- 8 Sudeste 17 Sudeste 0 970.7 -2 26
2017-11-21 15:00:00 -- 7 Sudeste 15 Sudeste 0 971.1 -2.5 27
2017-11-21 14:00:00 -- 0 Calma 10 Noroeste 0 971.7 -2.3 30
2017-11-21 13:00:00 -- 0 Calma 6 Oeste 0 972.7 -1.4 37
2017-11-21 12:00:00 -- 3 Oeste 9 Nordeste 0 973.6 -0.4 46
2017-11-21 11:00:00 -- 5 Este 9 Este 0 974 0.5 58
2017-11-21 10:00:00 -- 0 Calma 4 Sudeste 0 974.1 0.8 84
2017-11-21 09:00:00 -- 0 Calma 6 Este 0 974 0.8 93
2017-11-21 08:00:00 -- 4 Nordeste 6 Nordeste 0 973.5 0.1 96
2017-11-21 07:00:00 -- 0 Calma 5 Este 0 973.3 -0.4 92
2017-11-21 06:00:00 -- 0 Calma 4 Oeste 0 973.2 -0.5 90
2017-11-21 05:00:00 -- 0 Calma -- -- 0 973.4 -0.4 89
2017-11-21 04:00:00 -- 2 Nordeste 8 Nordeste 0 973.7 -0.3 88
2017-11-21 03:00:00 -- 0 Calma 6 Oeste 0 973.7 -0.3 82
2017-11-21 02:00:00 -- 0 Calma 5 Nordeste 0 973.8 -0.2 77
2017-11-21 01:00:00 -- 0 Calma 4 Nordeste 0 974 0.2 70
2017-11-21 00:00:00 -- 0 Calma 7 Nordeste 0 974 0 55
2017-11-20 23:00:00 -- 0 Calma 9 Noroeste 0 974 0.2 42
2017-11-20 22:00:00 -- 4 Oeste 8 Oeste 0 973.8 0.4 42
2017-11-20 21:00:00 -- 5 Oeste 8 Oeste 0 974 1 42
2017-11-20 20:00:00 -- 4 Oeste 8 Sur 0 973.8 0.9 38
2017-11-20 19:00:00 -- 3 Oeste 6 Sudoeste 0 973.4 0.4 38
2017-11-20 18:00:00 -- 3 Sur 14 Sur 0 973 0 35
2017-11-20 17:00:00 -- 7 Sur 21 Sur 0 972.9 -0.8 34
2017-11-20 16:00:00 -- 8 Sur 21 Sur 0 973 -1.3 35
2017-11-20 15:00:00 -- 9 Sur 29 Sur 0 973 -1.6 35
2017-11-20 14:00:00 -- 11 Sur 26 Sudeste 0 973.7 -1.1 34
2017-11-20 13:00:00 -- 13 Sudeste 26 Sudeste 0 974.3 -0.1 34
2017-11-20 12:00:00 -- 3 Este 13 Sudeste 0 974.6 0.8 38
2017-11-20 11:00:00 -- 0 Calma 11 Nordeste 0 974.8 1.3 55
2017-11-20 10:00:00 -- 3 Nordeste 10 Este 0 974.4 1.2 84
2017-11-20 09:00:00 -- 0 Calma 10 Sudoeste 0 973.8 1 85
2017-11-20 08:00:00 -- 0 Calma 12 Nordeste 0 973.5 0.6 88
2017-11-20 07:00:00 -- 0 Calma 18 Este 0 973.2 0.3 74
2017-11-20 06:00:00 -- 5 Este 17 Este 0 972.8 -0.3 68
2017-11-20 05:00:00 -- 7 Este 17 Sudeste 0 972.9 -0.4 65
2017-11-20 04:00:00 -- 7 Sudeste 21 Sudeste 0 972.9 -0.6 66
2017-11-20 03:00:00 -- 10 Sur 17 Sur 0 973.1 -0.4 87
2017-11-20 02:00:00 -- 3 Sur 9 Sur 0 973.3 -0.1 98
2017-11-20 01:00:00 -- 0 Calma 4 Sur 0 973.5 0.3 98
2017-11-20 00:00:00 -- 2 Sur 8 Sur 0 973.5 0.7 97
2017-11-19 23:00:00 -- 4 Oeste 8 Oeste 0 973.4 0.8 95
2017-11-19 22:00:00 -- 4 Oeste 6 Oeste 0 973.2 1 92
2017-11-19 21:00:00 -- 0 Calma 11 Sudoeste 0 972.8 1 88
2017-11-19 20:00:00 -- 3 Sudoeste 11 Sudoeste 0 972.6 1.1 86
2017-11-19 19:00:00 -- 2 Sur 14 Sur 0 972.2 1 79
2017-11-19 18:00:00 -- 3 Sudoeste 23 Sudeste 0 971.8 0.5 68
2017-11-19 17:00:00 -- 12 Sur 26 Sudeste 0 971.5 -0.2 64
2017-11-19 16:00:00 -- 11 Sudeste 28 Sudeste 0 971.2 -1 60
2017-11-19 15:00:00 -- 13 Sudeste 32 Sudeste 0 971.3 -1.6 59
2017-11-19 14:00:00 -- 14 Sudeste 29 Sur 0 971.7 -1.2 59
2017-11-19 13:00:00 -- 15 Sudeste 25 Sur 0 972.2 -0.1 59
2017-11-19 12:00:00 -- 15 Sudeste 40 Sudeste 0 972.9 0.9 63
2017-11-19 11:00:00 -- 16 Sudeste 34 Sudeste 0 972.9 1.4 59
2017-11-19 10:00:00 -- 14 Sur 27 Sudeste 0 972.3 1.4 79
2017-11-19 09:00:00 -- 4 Nordeste 18 Sur 0 972 1.4 94
2017-11-19 08:00:00 -- 10 Sur 26 Sudeste 0 971.5 0.8 90
2017-11-19 07:00:00 -- 14 Sur 29 Sur 0 970.9 0.2 88
2017-11-19 06:00:00 -- 13 Sur 31 Sur 0 970.6 -0.2 91
2017-11-19 05:00:00 -- 17 Sudeste 27 Sudeste 0 970.7 0 95
2017-11-19 04:00:00 -- 14 Este 22 Sudeste 0 970.7 -- 83
2017-11-19 03:00:00 -- 6 Sudeste 20 Sudeste 0 970.8 -0.2 77
2017-11-19 02:00:00 -- 0 Calma 5 Oeste 0 970.7 -0.2 90
2017-11-19 01:00:00 -- 0 Calma 5 Oeste 0 -- -- --
2017-11-19 00:00:00 -- 0 Calma 6 Este 0 971 0.2 80
2017-11-18 23:00:00 -- 2 Oeste 8 Sudoeste 0 970.9 0.4 70
2017-11-18 22:00:00 -- 3 Oeste 6 Oeste 0 970.9 1 61
2017-11-18 21:00:00 -- 0 Calma -- -- -- 970.8 1.1 54
2017-11-18 20:00:00 -- 2 Noroeste 6 Oeste 0 970.5 0.9 46
2017-11-18 19:00:00 -- 3 Oeste 5 Oeste 0 969.9 0.5 41
2017-11-18 18:00:00 -- 3 Sur 15 Sudeste 0 969.7 0.3 39
2017-11-18 17:00:00 -- 6 Sudeste 20 Sudeste 0 969.6 -0.2 35
2017-11-18 16:00:00 -- 8 Sudeste 24 Sudeste 0 969.4 -1.1 35
2017-11-18 15:00:00 -- 9 Sur 27 Sudeste 0 969.4 -1.7 36
2017-11-18 14:00:00 -- 13 Sudeste 28 Sudeste 0 969.8 -1.7 37
2017-11-18 13:00:00 -- 6 Sudeste 25 Sudeste 0 970.5 -0.8 36
2017-11-18 12:00:00 -- 0 Calma 9 Sudoeste 0 971.1 -0.1 58
2017-11-18 11:00:00 -- 0 Calma 5 Este 0 971.5 0.9 79
2017-11-18 10:00:00 -- 0 Calma 3 Este 0 971.3 1 94
2017-11-18 09:00:00 -- 0 Calma 4 Sudeste 0 971.2 1 99
2017-11-18 08:00:00 -- 0 Calma 6 Nordeste 0 970.6 0.3 99
2017-11-18 07:00:00 -- 0 Calma 5 Este 0 970.3 -0.3 99
2017-11-18 06:00:00 -- 0 Calma 7 Este 0 970.2 -0.3 98
2017-11-18 05:00:00 -- 0 Calma 6 Este 0 970.3 -0.5 98
2017-11-18 04:00:00 -- 0 Calma 4 Nordeste 0 970.6 -0.6 97
2017-11-18 03:00:00 -- 0 Calma 3 Oeste 0 970.5 -0.5 94
2017-11-18 02:00:00 -- 0 Calma 3 Nordeste 0 970.8 -0.4 92
2017-11-18 01:00:00 -- 0 Calma 6 Oeste 0 971.2 0.3 88
2017-11-18 00:00:00 -- 4 Oeste 9 Oeste 0 971 0.4 80
2017-11-17 23:00:00 -- 4 Oeste 7 Oeste 0 971.2 0.8 78
2017-11-17 22:00:00 -- 3 Oeste 9 Sudoeste 0 970.9 0.8 76
2017-11-17 21:00:00 -- 4 Oeste 9 Sudoeste 0 970.6 0.8 75
2017-11-17 20:00:00 -- 0 Calma 10 Sudoeste 0 970.4 1 63
2017-11-17 19:00:00 -- 0 Calma 12 Sudoeste 0 970.1 0.6 54
2017-11-17 18:00:00 -- 3 Sur 15 Sudeste 0 969.8 -0.2 44
2017-11-17 17:00:00 -- 6 Sudeste 14 Sur 0 969.4 -1.3 40
2017-11-17 16:00:00 -- 0 Calma 15 Nordeste 0 969.5 -1.7 36
2017-11-17 15:00:00 -- 2 Sudoeste 11 Oeste 0 970 -2 35
2017-11-17 14:00:00 -- 0 Calma 11 Sudoeste 0 970.7 -1.5 37
2017-11-17 13:00:00 -- 0 Calma 9 Sudoeste 0 971.2 -0.9 42
2017-11-17 12:00:00 -- 0 Calma 7 Oeste 0 972 0.2 52
2017-11-17 11:00:00 -- 0 Calma 7 Sudeste 0 972.2 0.6 78
2017-11-17 10:00:00 -- 3 Este 9 Este 0 972.1 0.9 91
2017-11-17 09:00:00 -- 0 Calma 9 Oeste 0 971.8 0.8 98
2017-11-17 08:00:00 -- 0 Calma 6 Nordeste 0 971.6 0.4 98
2017-11-17 07:00:00 -- 2 Este 8 Nordeste 0 971.2 0 97
2017-11-17 06:00:00 -- 0 Calma 6 Nordeste 0 971 -0.4 98
2017-11-17 05:00:00 -- 2 Nordeste 5 Nordeste 0 971.2 -0.4 97
2017-11-17 04:00:00 -- 0 Calma 7 Sudeste 0 971.2 -0.6 98
2017-11-17 03:00:00 -- 2 Nordeste 8 Este 0 971.4 -0.4 98
2017-11-17 02:00:00 -- 0 Calma 3 Sudeste 0 971.6 -0.1 96
2017-11-17 01:00:00 -- 0 Calma 5 Oeste 0 971.8 0.4 94
2017-11-17 00:00:00 -- 3 Oeste 6 Oeste 0 971.8 0.7 91
2017-11-16 23:00:00 -- 2 Oeste 6 Oeste 0 971.7 0.9 87
2017-11-16 22:00:00 -- 3 Oeste 6 Oeste 0 971.4 1.2 82
2017-11-16 21:00:00 -- 2 Sudoeste 8 Sur 0 971.1 1.2 74
2017-11-16 20:00:00 -- 2 Oeste 5 Oeste 0 970.8 1.1 64
2017-11-16 19:00:00 -- 0 Calma 6 Noroeste 0 970.2 0.4 46
2017-11-16 18:00:00 -- 0 Calma 8 Noroeste 0 969.9 0 39
2017-11-16 17:00:00 -- 2 Oeste 8 Nordeste 0 969.7 -0.7 39
2017-11-16 16:00:00 -- 0 Calma 13 Este 0 969.8 -1.4 40
2017-11-16 15:00:00 -- 0 Calma 11 Norte 0 969.9 -2 41
2017-11-16 14:00:00 -- 2 Este 7 Este 0 970.4 -1.7 46
2017-11-16 13:00:00 -- 2 Este 8 Este 0 971.2 -0.5 64
2017-11-16 12:00:00 -- 0 Calma 4 Sur 0 971.9 0.7 81
2017-11-16 11:00:00 -- 0 Calma 5 Este 0 972.1 1.3 98
2017-11-16 10:00:00 -- 0 Calma 6 Oeste 0 971.7 1.7 99
2017-11-16 09:00:00 -- 0 Calma 4 Oeste 0 971.2 1.2 99
2017-11-16 08:00:00 -- 0 Calma 8 Oeste 0 970.8 0.9 99
2017-11-16 07:00:00 -- 0 Calma 2 Oeste 0 970 -0.3 99
2017-11-16 06:00:00 -- 3 Nordeste 9 Este 0 970 -0.4 99
2017-11-16 05:00:00 -- 0 Calma 5 Nordeste 0 969.9 -0.4 99
2017-11-16 04:00:00 -- 0 Calma 5 Oeste 0 970.3 0.1 99
2017-11-16 03:00:00 -- 3 Oeste 5 Sudoeste 0 970.4 -0.1 99
2017-11-16 02:00:00 -- 0 Calma 4 Oeste 0 970.3 -0.2 98
2017-11-16 01:00:00 -- 2 Oeste 7 Oeste 0 970.2 -0.3 97
2017-11-16 00:00:00 -- 0 Calma 6 Oeste 0 970.5 0.4 95
2017-11-15 23:00:00 -- 2 Oeste 8 Sur 0 970.5 0.6 91
2017-11-15 22:00:00 -- 3 Oeste 5 Sudoeste 0 970.5 0.8 84
2017-11-15 21:00:00 -- 0 Calma 5 Sudoeste 0 970.1 1 78
2017-11-15 20:00:00 -- 0 Calma 7 Sur 0 969.9 0.6 73
2017-11-15 19:00:00 -- 0 Calma 7 Sur 0 969.7 0.3 66
2017-11-15 18:00:00 -- 0 Calma 14 Sudeste 0 969.1 -0.5 60
2017-11-15 17:00:00 -- 8 Sudeste 17 Sudeste 0 969.3 -0.9 56
2017-11-15 16:00:00 -- 3 Sudoeste 22 Sudeste 0 969.4 -1.4 51
2017-11-15 15:00:00 -- 7 Sudeste 23 Sudeste 0 969.6 -2.1 54
2017-11-15 14:00:00 -- 9 Sudeste 25 Este 0 970.2 -1.8 55
2017-11-15 13:00:00 -- 12 Sudeste 27 Sudeste 0 970.8 -1 58
2017-11-15 12:00:00 -- 14 Sudeste 33 Sudeste 0 971.7 0.2 61
2017-11-15 11:00:00 -- 13 Sudeste 32 Sudeste 0 972 0.9 67
2017-11-15 10:00:00 -- 14 Sudeste 28 Sudeste 0 971.8 1.4 67
2017-11-15 09:00:00 -- 11 Sudeste 30 Sudeste 0 971.5 1.1 71
2017-11-15 08:00:00 -- 11 Sudeste 31 Sudeste 0 971.1 1.1 77
2017-11-15 07:00:00 -- 15 Sudeste 34 Sudeste 0 970.4 0.1 78
2017-11-15 06:00:00 -- 14 Sudeste 31 Sudeste 0 970.4 0.1 80
2017-11-15 05:00:00 -- 12 Sudeste 30 Sur 0 970 -0.2 79
2017-11-15 04:00:00 -- 9 Sudeste 36 Sudeste 0 970.3 0 83
2017-11-15 03:00:00 -- 11 Sudeste 35 Sudeste 0 970.3 0 86
2017-11-15 02:00:00 -- 14 Sudeste 28 Sur 0 970.2 0.1 86
2017-11-15 01:00:00 -- 12 Sudeste 25 Sur 0 970.3 0.5 90
2017-11-15 00:00:00 -- 5 Sur 23 Sur 0 970.3 0.7 90
2017-11-14 23:00:00 -- 7 Sur 19 Sudoeste 0 970.1 1 89
2017-11-14 22:00:00 -- 0 Calma 15 Sur 0 969.8 1.1 86
2017-11-14 21:00:00 -- 2 Noroeste -- -- -- 969.6 1.4 63
2017-11-14 20:00:00 -- 2 Oeste 10 Sur 0 969.1 1.4 65
2017-11-14 19:00:00 -- 3 Noroeste 13 Noroeste 0 968.7 1.1 59
2017-11-14 18:00:00 -- 0 Calma 12 Sur 0 968.2 0.6 63
2017-11-14 17:00:00 -- 5 Nordeste 9 Norte 0 967.7 -1 49
2017-11-14 16:00:00 -- 0 Calma 10 Norte 0 967.6 -1.8 48
2017-11-14 15:00:00 -- 0 Calma 10 Oeste 0 967.6 -2.5 44
2017-11-14 14:00:00 -- 6 Noroeste 16 Oeste 0 968.7 -1.7 43
2017-11-14 13:00:00 -- 4 Noroeste 10 Norte 0 969.4 -0.9 43
2017-11-14 12:00:00 -- 0 Calma 7 Este 0 970.1 0.3 57
2017-11-14 11:00:00 -- 3 Sudeste 8 Este 0 970.4 0.9 68
2017-11-14 10:00:00 -- 0 Calma 9 Este 0 970.3 1.3 80
2017-11-14 09:00:00 -- 3 Este 6 Oeste 0 969.8 0.8 88
2017-11-14 08:00:00 -- 0 Calma 9 Noroeste 0 969.5 0.5 84
2017-11-14 07:00:00 -- 6 Noroeste 9 Noroeste 0 969 0.1 79
2017-11-14 06:00:00 -- 0 Calma 16 Noroeste 0 969 -0.4 83
2017-11-14 05:00:00 -- 2 Nordeste 14 Norte 0 969 -0.4 78
2017-11-14 04:00:00 -- 0 Calma 12 Norte 0 968.9 -0.5 79
2017-11-14 03:00:00 -- 3 Este 12 Noroeste 0 969.4 0 78
2017-11-14 02:00:00 -- 0 Calma 9 Noroeste 0 969.4 0.1 77
2017-11-14 01:00:00 -- 0 Calma 14 Noroeste 0 969.4 0.5 74
2017-11-14 00:00:00 -- 7 Noroeste 17 Noroeste 0 969.4 0.5 67
2017-11-13 23:00:00 -- 10 Noroeste 15 Noroeste 0 969.3 0.7 61
2017-11-13 22:00:00 -- 5 Norte 19 Noroeste 0 968.9 0.9 55
2017-11-13 21:00:00 -- 10 Noroeste 15 Noroeste 0 968.9 1.5 56
2017-11-13 20:00:00 -- 12 Noroeste 15 Noroeste 0 968.6 1.4 54
2017-11-13 19:00:00 -- 6 Noroeste 13 Norte 0 968 0.9 52
2017-11-13 18:00:00 -- 3 Noroeste 18 Nordeste 0 967.4 -0.2 45
2017-11-13 17:00:00 -- 6 Norte 24 Noroeste 0 967.2 -0.9 43
2017-11-13 16:00:00 -- 5 Norte 19 Norte 0 967.1 -1.8 45
2017-11-13 15:00:00 -- 5 Norte 20 Noroeste 0 967.6 -2.3 45
2017-11-13 14:00:00 -- 5 Norte 17 Nordeste 0 968.1 -2.2 47
2017-11-13 13:00:00 -- 6 Noroeste 17 Norte 0 968.9 -1.6 57
2017-11-13 12:00:00 -- 2 Nordeste 8 Este 0 969.9 -0.2 68
2017-11-13 11:00:00 -- 0 Calma 6 Sudeste 0 970.3 0.6 83
2017-11-13 10:00:00 -- 2 Este 9 Nordeste 0 970.5 1.1 95
2017-11-13 09:00:00 -- 0 Calma 4 Este 0 970.1 0.6 99
2017-11-13 08:00:00 -- 0 Calma 5 Este 0 969.7 -0.3 99
2017-11-13 07:00:00 -- 2 Nordeste 5 Nordeste 0 969.4 -0.8 99
2017-11-13 06:00:00 -- 0 Calma 4 Este 0 969.5 -0.9 98
2017-11-13 05:00:00 -- 0 Calma 4 Noroeste 0 970 -0.4 97
2017-11-13 04:00:00 -- 0 Calma 5 Noroeste 0 970.2 -- 95
2017-11-13 03:00:00 -- 0 Calma 8 Nordeste 0 970.4 -0.9 95
2017-11-13 02:00:00 -- 0 Calma 5 Oeste 0 970.4 -1.4 90
2017-11-13 01:00:00 -- -- -- -- -- -- -- -- --
2017-11-13 00:00:00 -- 2 Noroeste 9 Norte 0 971.3 -0.5 83
2017-11-12 23:00:00 -- 5 Nordeste 8 Nordeste 0 971.8 0.1 81
2017-11-12 22:00:00 -- 0 Calma 6 Nordeste 0 971.6 0.2 72
2017-11-12 21:00:00 -- 0 Calma 6 Noroeste 0 971.8 0.7 58
2017-11-12 20:00:00 -- 0 Calma 10 Noroeste 0 971.7 0.6 56
2017-11-12 19:00:00 -- 3 Noroeste 10 Noroeste 0 971.4 0.3 49
2017-11-12 18:00:00 -- 4 Noroeste 18 Noroeste 0 971.1 -0.2 45
2017-11-12 17:00:00 -- 10 Noroeste 20 Oeste 0 971.1 -1.3 40
2017-11-12 16:00:00 -- 3 Norte 19 Norte 0 971.1 -1.8 40
2017-11-12 15:00:00 -- 3 Noroeste 16 Noroeste 0 971.3 -2.6 45
2017-11-12 14:00:00 -- 4 Norte 17 Norte 0 972.4 -2 46
2017-11-12 13:00:00 -- 0 Calma 6 Este 0 972.9 -1.8 52
2017-11-12 12:00:00 -- 0 Calma 8 Este 0 973.9 -1 61
2017-11-12 11:00:00 -- 4 Este 7 Sudeste 0 974.4 -0.1 78
2017-11-12 10:00:00 -- 2 Este 7 Este 0 974.7 0.3 94
2017-11-12 09:00:00 -- 0 Calma 5 Oeste 0 974.9 0.3 99
2017-11-12 08:00:00 -- 0 Calma -- -- 0 974.5 0 99
2017-11-12 07:00:00 -- 0 Calma 2 Oeste 0 974.4 -0.2 98
2017-11-12 06:00:00 -- 0 Calma 5 Nordeste 0 974.6 -0.3 98
2017-11-12 05:00:00 -- 0 Calma 8 Oeste 0 974.5 -0.8 97
2017-11-12 04:00:00 -- 0 Calma 9 Nordeste 0 974.6 -0.9 96
2017-11-12 03:00:00 -- 0 Calma 6 Nordeste 0 974.9 -1 95
2017-11-12 02:00:00 -- 0 Calma -- -- 0 975.3 -0.6 92
2017-11-12 01:00:00 -- 0 Calma 4 Nordeste 0 975.5 -0.4 89
2017-11-12 00:00:00 -- 4 Nordeste 7 Nordeste 0 975.9 -0.1 87
2017-11-11 23:00:00 -- 0 Calma 5 Este 0 975.9 0 78
2017-11-11 22:00:00 -- 0 Calma 8 Este 0 975.9 0.3 71
2017-11-11 21:00:00 -- 2 Noroeste 11 Noroeste 0 976 0.3 63
2017-11-11 20:00:00 -- 0 Calma 8 Noroeste 0 975.9 0.2 55
2017-11-11 19:00:00 -- 3 Norte 19 Noroeste 0 975.6 -0.1 50
2017-11-11 18:00:00 -- 3 Noroeste 17 Noroeste 0 975.7 -0.6 47
2017-11-11 17:00:00 -- 5 Norte 19 Noroeste 0 975.7 -0.9 45
2017-11-11 16:00:00 -- 10 Noroeste 23 Noroeste 0 975.7 -1.6 43
2017-11-11 15:00:00 -- 5 Norte 22 Nordeste 0 976.3 -2.2 45
2017-11-11 14:00:00 -- 4 Norte 19 Norte 0 976.6 -2.3 48
2017-11-11 13:00:00 -- 5 Este 10 Este 0 977.3 -1.9 53
2017-11-11 12:00:00 -- 0 Calma 7 Este 0 978.5 -0.4 62
2017-11-11 11:00:00 -- 0 Calma 8 Nordeste 0 978.9 0.2 70
2017-11-11 10:00:00 -- 2 Este 8 Este 0 979.2 0.7 89
2017-11-11 09:00:00 -- 5 Este 9 Nordeste 0 978.9 0.4 99
2017-11-11 08:00:00 -- 0 Calma 4 Noroeste 0 978.7 0.4 98
2017-11-11 07:00:00 -- 0 Calma 4 Oeste 0 978.5 0.1 98
2017-11-11 06:00:00 -- 3 Nordeste 6 Este 0 978.5 -0.5 98
2017-11-11 05:00:00 -- 4 Nordeste 7 Noroeste 0 978.3 -0.9 94
2017-11-11 04:00:00 -- 4 Oeste 7 Oeste 0 978.4 -1.2 95
2017-11-11 03:00:00 -- 0 Calma 11 Noroeste 0 979 -0.7 90
2017-11-11 02:00:00 -- 3 Nordeste 10 Nordeste 0 979.2 -0.5 85
2017-11-11 01:00:00 -- 0 Calma 4 Nordeste 0 979.6 0 85
2017-11-11 00:00:00 -- 0 Calma 6 Nordeste 0 979.7 0.4 78
2017-11-10 23:00:00 -- 0 Calma 12 Noroeste 0 979.7 0.7 74
2017-11-10 22:00:00 -- 3 Noroeste 7 Norte 0 979.6 1.2 63
2017-11-10 21:00:00 -- 3 Nordeste 6 Nordeste 0 979.3 1.3 55
2017-11-10 20:00:00 -- 0 Calma 15 Norte 0 979 1.4 52
2017-11-10 19:00:00 -- 4 Norte 27 Nordeste 0 978.4 1.4 47
2017-11-10 18:00:00 -- 3 Norte 19 Nordeste 0 978 0.6 46
2017-11-10 17:00:00 -- 8 Norte 34 Nordeste 0 977.6 -0.2 43
2017-11-10 16:00:00 -- 19 Nordeste 35 Nordeste 0 977 -1.3 41
2017-11-10 15:00:00 -- 12 Nordeste 26 Nordeste 0 977.4 -1.4 41
2017-11-10 14:00:00 -- 4 Norte 24 Norte 0 977.8 -0.9 43
2017-11-10 13:00:00 -- 6 Norte 27 Norte 0 978.3 0.1 46
2017-11-10 12:00:00 -- 6 Norte 18 Noroeste 0 978.8 0.6 50
2017-11-10 11:00:00 -- 6 Nordeste 22 Nordeste 0 978.7 0.9 53
2017-11-10 10:00:00 -- 6 Oeste 13 Oeste 0 978.2 0.8 74
2017-11-10 09:00:00 -- 3 Noroeste 12 Noroeste 0 978.2 0.9 87
2017-11-10 08:00:00 -- 4 Oeste 8 Oeste 0 977.8 0.7 99
2017-11-10 07:00:00 -- 0 Calma 4 Sudeste 0 977.4 0.3 98
2017-11-10 06:00:00 -- 2 Nordeste 12 Noroeste 0 977.3 0.4 97
2017-11-10 05:00:00 -- 0 Calma 5 Este 0 977.1 0.1 95
2017-11-10 04:00:00 -- 0 Calma 6 Noroeste 0 977.1 -0.2 96
2017-11-10 03:00:00 -- 0 Calma 5 Oeste 0 976.9 -0.2 89
2017-11-10 02:00:00 -- 0 Calma 5 Noroeste 0 977 0.3 85
2017-11-10 01:00:00 -- 0 Calma 5 Noroeste 0 977.3 1.1 85
2017-11-10 00:00:00 -- 0 Calma 6 Sudeste 0 977.1 1.6 73
2017-11-09 23:00:00 -- 0 Calma 5 Noroeste 0 976.7 1.5 70
2017-11-09 22:00:00 -- 0 Calma 8 Norte 0 976.2 1.5 65
2017-11-09 21:00:00 -- 2 Sudoeste 14 Norte 0 975.5 1.5 55
2017-11-09 20:00:00 -- 2 Norte 14 Oeste 0 975.2 1.7 52
2017-11-09 19:00:00 -- 7 Noroeste 14 Noroeste 0 974.7 1.4 48
2017-11-09 18:00:00 -- 3 Norte 18 Noroeste 0 974 0.9 43
2017-11-09 17:00:00 -- 3 Norte 21 Nordeste 0 973.5 0.1 41
2017-11-09 16:00:00 -- 5 Norte 24 Noroeste 0 973.3 -0.8 41
2017-11-09 15:00:00 -- 4 Norte 22 Norte 0 973.1 -1.3 42
2017-11-09 14:00:00 -- 5 Norte 21 Nordeste 0 973.4 -1.3 44
2017-11-09 13:00:00 -- 5 Norte 22 Noroeste 0 974.1 -0.1 47
2017-11-09 12:00:00 -- 5 Norte 18 Noroeste 0 974.4 0.5 50
2017-11-09 11:00:00 -- 5 Nordeste 17 Este 0 974.7 1.5 56
2017-11-09 10:00:00 -- 0 Calma 6 Noroeste 0 974.2 1.5 70
2017-11-09 09:00:00 -- 6 Noroeste 17 Noroeste 0 973.9 1.4 68
2017-11-09 08:00:00 -- 9 Noroeste 14 Noroeste 0 973.2 1.2 76
2017-11-09 07:00:00 -- 2 Noroeste 15 Noroeste 0 972.7 0.5 71
2017-11-09 06:00:00 -- 9 Noroeste 14 Noroeste 0 972.5 0.3 74
2017-11-09 05:00:00 -- 0 Calma 14 Norte 0 972 0 84
2017-11-09 04:00:00 -- 0 Calma 4 Oeste 0 972.2 0.1 93
2017-11-09 03:00:00 -- 0 Calma 4 Nordeste 0 972.2 0 94
2017-11-09 02:00:00 -- 0 Calma 16 Noroeste 0 972 -0.3 95
2017-11-09 01:00:00 -- 0 Calma 6 Noroeste 0 972.1 -0.1 87
2017-11-09 00:00:00 -- 0 Calma 5 Nordeste 0 972.2 0.4 86
2017-11-08 23:00:00 -- 0 Calma 4 Este 0 972.3 0.4 86
2017-11-08 22:00:00 -- 0 Calma 10 Noroeste 0 972.2 0.7 78
2017-11-08 21:00:00 -- 6 Noroeste 10 Noroeste 0 971.8 0.7 69
2017-11-08 20:00:00 -- 3 Noroeste 9 Noroeste 0 971.9 1 57
2017-11-08 19:00:00 -- 0 Calma 11 Norte 0 971.5 0.5 51
2017-11-08 18:00:00 -- 0 Calma 12 Norte 0 971.1 -0.3 45
2017-11-08 17:00:00 -- 0 Calma 12 Norte 0 970.9 -1 39
2017-11-08 16:00:00 -- 3 Norte 12 Noroeste 0 971 -1.5 36
2017-11-08 15:00:00 -- 0 Calma 9 Norte 0 971.4 -1.9 39
2017-11-08 14:00:00 -- 0 Calma 11 Noroeste 0 971.9 -1.6 44
2017-11-08 13:00:00 -- 0 Calma 8 Sudeste 0 972.5 -0.7 57
2017-11-08 12:00:00 -- 0 Calma 7 Sudeste 0 973.3 0.2 69
2017-11-08 11:00:00 -- 0 Calma 8 Este 0 973.5 0.9 81
2017-11-08 10:00:00 -- 0 Calma 6 Nordeste 0 973.2 1 97
2017-11-08 09:00:00 -- 0 Calma 4 Este 0 973.1 1.2 99
2017-11-08 08:00:00 -- 0 Calma 5 Noroeste 0 972.6 1 99
2017-11-08 07:00:00 -- 0 Calma 4 Nordeste 0 972.2 0.5 99
2017-11-08 06:00:00 -- 0 Calma 4 Norte 0 971.9 0 98
2017-11-08 05:00:00 -- 0 Calma 5 Sudeste 0 971.6 -0.2 98
2017-11-08 04:00:00 -- 0 Calma 3 Este 0 971.7 -0.3 98
2017-11-08 03:00:00 -- 0 Calma 5 Nordeste 0 971.9 0 97
2017-11-08 02:00:00 -- 0 Calma 5 Nordeste 0 971.8 -- 97
2017-11-08 01:00:00 -- 3 Nordeste 8 Nordeste 0 972 0.3 94
2017-11-08 00:00:00 -- 0 Calma -- -- 0 971.9 0.5 86
2017-11-07 23:00:00 -- 0 Calma 5 Noroeste 0 -- -- --
2017-11-07 22:00:00 -- 0 Calma 9 Oeste 0 971.7 0.9 76
2017-11-07 21:00:00 -- 5 Noroeste 9 Noroeste 0 971.4 1 67
2017-11-07 20:00:00 -- 0 Calma -- -- 0 971 0.6 60
2017-11-07 19:00:00 -- 0 Calma 8 Noroeste 0 970.8 0.5 51
2017-11-07 18:00:00 -- 0 Calma 9 Noroeste 0 970.4 0.1 48
2017-11-07 17:00:00 -- 2 Norte 16 Nordeste 0 970.4 0 44
2017-11-07 16:00:00 -- 5 Norte 17 Nordeste 0 970.3 -0.3 43
2017-11-07 15:00:00 -- 3 Norte 17 Noroeste 0 970.3 -0.9 46
2017-11-07 14:00:00 -- 4 Noroeste 9 Oeste 0 970.4 -1 51
2017-11-07 13:00:00 -- 3 Este 8 Este 0 970.6 -0.7 52
2017-11-07 12:00:00 -- 0 Calma 8 Nordeste 0 971.2 0.2 56
2017-11-07 11:00:00 -- 2 Sudeste 8 Este 0 971.4 0.9 82
2017-11-07 10:00:00 -- 0 Calma 5 Oeste 0 971.3 1.4 97
2017-11-07 09:00:00 -- 0 Calma 6 Nordeste 0 971 1.2 98
2017-11-07 08:00:00 -- 0 Calma 7 Nordeste 0 970.5 0.6 98
2017-11-07 07:00:00 -- 0 Calma 4 Este 0 969.9 0 98
2017-11-07 06:00:00 -- 0 Calma 5 Este 0 969.8 -0.5 97
2017-11-07 05:00:00 -- 0 Calma 6 Oeste 0 969.9 -0.6 94
2017-11-07 04:00:00 -- 0 Calma 4 Nordeste 0 969.9 -0.8 93
2017-11-07 03:00:00 -- 3 Nordeste 6 Nordeste 0 970.3 -0.5 94
2017-11-07 02:00:00 -- 0 Calma 4 Oeste 0 970.5 -0.3 87
2017-11-07 01:00:00 -- 0 Calma -- -- -- 970.7 0.2 79
2017-11-07 00:00:00 -- 2 Oeste 8 Noroeste 0 970.8 0.6 73
2017-11-06 23:00:00 -- 4 Noroeste 7 Noroeste 0 970.8 0.6 69
2017-11-06 22:00:00 -- 0 Calma 10 Noroeste 0 970.5 0.3 68
2017-11-06 21:00:00 -- 2 Oeste 14 Noroeste 0 970.2 0.3 66
2017-11-06 20:00:00 -- 8 Noroeste 14 Noroeste 0 970.2 0.1 54
2017-11-06 19:00:00 -- 4 Noroeste 21 Noroeste 0 970.2 0.1 55
2017-11-06 18:00:00 -- 10 Noroeste 18 Noroeste 0 969.9 -0.6 51
2017-11-06 17:00:00 -- 6 Noroeste 19 Norte 0 970.1 -1.3 45
2017-11-06 16:00:00 -- 7 Noroeste 18 Noroeste 0 970.1 -2.3 48
2017-11-06 15:00:00 -- 3 Este 13 Este 0 970.5 -3 51
2017-11-06 14:00:00 -- 2 Este 12 Nordeste 0 971.4 -2.2 53
2017-11-06 13:00:00 -- 3 Este 12 Nordeste 0 972.4 -1.2 55
2017-11-06 12:00:00 -- 4 Este 12 Este 0 973.5 0 67
2017-11-06 11:00:00 -- 0 Calma 6 Sudeste 0 973.6 0.7 99
2017-11-06 10:00:00 -- 0 Calma 0 Calma 0 973.6 1.1 99
2017-11-06 09:00:00 -- 0 Calma 2 Oeste 0 973.5 1 99
2017-11-06 08:00:00 -- 0 Calma 5 Oeste 0 972.9 0.5 99
2017-11-06 07:00:00 -- 0 Calma 6 Noroeste 0 972.5 -0.1 99
2017-11-06 06:00:00 -- 0 Calma 4 Noroeste 0.1 972.5 -0.5 99
2017-11-06 05:00:00 -- 3 Noroeste 5 Noroeste 0 972.4 -0.6 99
2017-11-06 04:00:00 -- 0 Calma 4 Este 0 972.6 -1 99
2017-11-06 03:00:00 -- 0 Calma 6 Sur 0 973 -0.9 99
2017-11-06 02:00:00 -- 0 Calma 8 Noroeste 0 973 -0.9 99
2017-11-06 01:00:00 -- 0 Calma 7 Noroeste 0 973.6 0.1 99
2017-11-06 00:00:00 -- 4 Noroeste 8 Noroeste 0 973.9 0.6 99
2017-11-05 23:00:00 -- 0 Calma 6 Nordeste 0 973.9 0.7 99
2017-11-05 22:00:00 -- 4 Noroeste 6 Noroeste 0 973.5 0.9 97
2017-11-05 21:00:00 -- 0 Calma 6 Noroeste 0 973.3 1 95
2017-11-05 20:00:00 -- 0 Calma 6 Noroeste 0 973.2 0.8 94
2017-11-05 19:00:00 -- 4 Noroeste 9 Noroeste 0 972.6 0.4 91
2017-11-05 18:00:00 -- 5 Noroeste 16 Noroeste 0 972.3 0.2 83
2017-11-05 17:00:00 -- 9 Noroeste 19 Noroeste 0 972.4 -0.1 80
2017-11-05 16:00:00 -- 6 Noroeste 19 Norte 0 972.2 -0.6 80
2017-11-05 15:00:00 -- 4 Norte 14 Noroeste 0 972.1 -1.4 79
2017-11-05 14:00:00 -- 2 Norte 13 Oeste 0 972.5 -1 81
2017-11-05 13:00:00 -- 7 Noroeste 17 Sudoeste 0 972.8 -0.5 83
2017-11-05 12:00:00 -- 2 Norte 11 Nordeste 0 973.5 0.6 85
2017-11-05 11:00:00 -- 6 Noroeste 14 Noroeste 0 973.5 1.6 88
2017-11-05 10:00:00 -- 8 Noroeste 13 Norte 0 973.3 1.9 94
2017-11-05 09:00:00 -- 6 Noroeste 10 Noroeste 0 972.9 1.5 99
2017-11-05 08:00:00 -- 0 Calma 6 Noroeste 0 971.9 1.1 98
2017-11-05 07:00:00 -- 4 Noroeste 12 Oeste 0 971.4 0.8 97
2017-11-05 06:00:00 -- 5 Oeste 12 Noroeste 0 971.4 0.8 96
2017-11-05 05:00:00 -- 2 Noroeste 10 Noroeste 0 970.8 0.1 96
2017-11-05 04:00:00 -- 0 Calma 10 Noroeste 0 970.6 -0.3 97
2017-11-05 03:00:00 -- 4 Noroeste 8 Noroeste 0 970.6 0.2 96
2017-11-05 02:00:00 -- 0 Calma 3 Este 0 970.7 0.7 97
2017-11-05 01:00:00 -- 0 Calma -- -- -- 970.9 1.4 95
2017-11-05 00:00:00 -- 0 Calma 15 Noroeste 0 970.4 1.4 94
2017-11-04 23:00:00 -- 8 Oeste 19 Oeste 0 970 1.4 94
2017-11-04 22:00:00 -- 5 Oeste 20 Oeste 0 969.5 1.3 93
2017-11-04 21:00:00 -- 3 Sudoeste 14 Sudoeste 0 969 1.7 86
2017-11-04 20:00:00 -- 4 Sudoeste 25 Sudoeste 0 968.6 1.6 84
2017-11-04 19:00:00 -- 5 Oeste 23 Oeste 0 968.2 1.8 77
2017-11-04 18:00:00 -- 6 Oeste 27 Sudoeste 0.1 967.3 1.1 72
2017-11-04 17:00:00 -- 8 Oeste 22 Oeste 0.1 967 0.8 78
2017-11-04 16:00:00 -- 13 Oeste 32 Sudoeste 0 966.4 0 68
2017-11-04 15:00:00 -- 8 Oeste 39 Sur 0 966.2 -0.6 77
2017-11-04 14:00:00 -- 8 Sudoeste 32 Norte 0 966.2 -0.8 76
2017-11-04 13:00:00 -- 5 Sudoeste 20 Sudoeste 0 966.4 -0.3 82
2017-11-04 12:00:00 -- 7 Sudoeste 20 Sudoeste 0.1 966.8 0.6 88
2017-11-04 11:00:00 -- 3 Sudoeste 13 Sudoeste 0.4 967 1.7 99
2017-11-04 10:00:00 -- 3 Este 7 Oeste 2.1 966.7 1.7 99
2017-11-04 09:00:00 -- 0 Calma 13 Oeste 0.6 966.2 1.4 99
2017-11-04 08:00:00 -- 8 Nordeste 12 Nordeste 0.4 965.3 0.6 99
2017-11-04 07:00:00 -- 0 Calma 8 Nordeste 0 965 0.7 99
2017-11-04 06:00:00 -- 0 Calma 17 Oeste 0.5 964.8 -0.5 98
2017-11-04 05:00:00 -- 6 Sudoeste 19 Sur 0 964.7 -1 95
2017-11-04 04:00:00 -- 9 Sur 19 Sur 0 964.3 -2 99
2017-11-04 03:00:00 -- 2 Sudoeste 7 Oeste 0 965.3 -1.2 99
2017-11-04 02:00:00 -- 0 Calma 5 Noroeste 0 965.7 -0.8 99
2017-11-04 01:00:00 -- 4 Oeste 6 Oeste 0 966.3 0 99
2017-11-04 00:00:00 -- 0 Calma 6 Oeste 0.1 966.5 0.3 99
2017-11-03 23:00:00 -- 0 Calma 6 Nordeste 0.1 966.5 0.4 99
2017-11-03 22:00:00 -- 0 Calma 10 Sudoeste 0.3 966.3 1.1 99
2017-11-03 21:00:00 -- 0 Calma 17 Sudeste 4.5 966.2 1.7 99
2017-11-03 20:00:00 -- 8 Sudeste -- -- -- 966.1 1.3 99
2017-11-03 19:00:00 -- 2 Norte 49 Sudoeste 7.2 965.2 0.3 96
2017-11-03 18:00:00 -- 10 Sudeste 22 Sudeste 0 964.5 -0.5 75
2017-11-03 17:00:00 -- 10 Sur 23 Sur 0 964.8 -0.9 67
2017-11-03 16:00:00 -- 7 Sudeste 16 Sudeste 0 964.9 -1.2 64
2017-11-03 15:00:00 -- 6 Sudeste 18 Sudeste 0 965 -2.1 63
2017-11-03 14:00:00 -- 3 Oeste 13 Sur 0 965.7 -1.6 62
2017-11-03 13:00:00 -- 7 Sudeste 17 Sudeste 0 966.1 -1 64
2017-11-03 12:00:00 -- 0 Calma 9 Este 0 967.1 0.1 71
2017-11-03 11:00:00 -- 3 Noroeste 10 Noroeste 0 967.3 0.8 80
2017-11-03 10:00:00 -- 0 Calma 6 Sudeste 0 967.1 0.8 90
2017-11-03 09:00:00 -- 0 Calma 11 Sur 0 967 0.8 94
2017-11-03 08:00:00 -- 0 Calma 10 Sur 0 966.5 -0.1 92
2017-11-03 07:00:00 -- 3 Noroeste 22 Sur 0 966.3 -0.6 90
2017-11-03 06:00:00 -- 4 Sur 22 Sur 0 966.2 -1.3 91
2017-11-03 05:00:00 -- 12 Sudeste 25 Sur 0 966.6 -0.4 91
2017-11-03 04:00:00 -- 10 Sudeste 28 Sudeste 0 966.9 -0.4 90
2017-11-03 03:00:00 -- 12 Sur 37 Sudeste 0 967.5 -0.7 84
2017-11-03 02:00:00 -- 22 Sur 42 Sur 0 967 -1.4 87
2017-11-03 01:00:00 -- 9 Sur 28 Sudeste 0 967.3 -1.1 84
2017-11-03 00:00:00 -- 10 Sudeste 25 Sudeste 0 968.2 -0.4 87
2017-11-02 23:00:00 -- 14 Sur 28 Sudeste 0 968.4 -0.1 84
2017-11-02 22:00:00 -- 9 Sur 27 Sur 0 968.4 0.1 88
2017-11-02 21:00:00 -- 15 Sur 27 Sur 0 968.6 0.6 90
2017-11-02 20:00:00 -- 5 Sur 16 Sur 0 968.5 0.3 77
2017-11-02 19:00:00 -- 5 Sur 22 Sur 0 968.3 -0.1 73
2017-11-02 18:00:00 -- 9 Sur 26 Sur 0 968 -0.7 65
2017-11-02 17:00:00 -- 15 Sudeste 31 Sudeste 0 968.2 -1 59
2017-11-02 16:00:00 -- 15 Sur 27 Sur 0 968.4 -1.3 63
2017-11-02 15:00:00 -- 12 Sur 28 Sur 0 968.7 -1.8 66
2017-11-02 14:00:00 -- 12 Sur 31 Sudeste 0 969.2 -1.4 67
2017-11-02 13:00:00 -- 13 Sur 33 Sur 0 969.7 -1.3 69
2017-11-02 12:00:00 -- 12 Sur 29 Sudeste 0 970.5 -0.1 69
2017-11-02 11:00:00 -- 13 Sudeste 32 Sudeste 0 970.6 0.3 76
2017-11-02 10:00:00 -- 16 Sur 33 Sudeste 0 971 0.9 77
2017-11-02 09:00:00 -- 18 Sudeste 39 Este 0 970.6 0.5 82
2017-11-02 08:00:00 -- 16 Sudeste 33 Sudeste 0 970.3 0.4 81
2017-11-02 07:00:00 -- 13 Sudeste 41 Sudeste 0 970.1 -0.2 80
2017-11-02 06:00:00 -- 18 Sudeste 39 Sur 0 970.1 -0.3 81
2017-11-02 05:00:00 -- 16 Sudeste 33 Sudeste 0 969.9 -0.7 80
2017-11-02 04:00:00 -- 10 Sur 35 Sur 0 970.3 -0.6 77
2017-11-02 03:00:00 -- 15 Sur 32 Sur 0 970.4 -0.7 80
2017-11-02 02:00:00 -- 18 Sur 42 Sur 0 970.6 -0.5 81
2017-11-02 01:00:00 -- 19 Sudeste 40 Sur 0 970.9 0 78
2017-11-02 00:00:00 -- 17 Sudeste 39 Sudeste 0 971.1 0 80
2017-11-01 23:00:00 -- 21 Sudeste 44 Sudeste 0 971.1 0.2 80
2017-11-01 22:00:00 -- 22 Sudeste 37 Sur 0 970.9 0.1 80
2017-11-01 21:00:00 -- 17 Sudeste 39 Sudeste 0 971.1 0.7 79
2017-11-01 20:00:00 -- 13 Sur 40 Sudeste 0 970.9 0.6 78
2017-11-01 19:00:00 -- 14 Sur 34 Sur 0 970.8 0.6 79
2017-11-01 18:00:00 -- 11 Sur 37 Sur 0 970.4 -0.2 72
2017-11-01 17:00:00 -- 13 Sur 35 Sur 0 970.3 -1 64
2017-11-01 16:00:00 -- 18 Sur 40 Sur 0 970.2 -1.6 63
2017-11-01 15:00:00 -- 17 Sur 33 Sudeste 0 970.6 -2.1 62
2017-11-01 14:00:00 -- 11 Sur 36 Sudeste 0 971.3 -1.7 64
2017-11-01 13:00:00 -- 19 Sur 37 Sur 0 971.8 -0.9 64
2017-11-01 12:00:00 -- 16 Sudeste 39 Sudeste 0 972.7 0.5 70
2017-11-01 11:00:00 -- 13 Sudeste 42 Sur 0 973 1.4 76
2017-11-01 10:00:00 -- 20 Sur 41 Sur 0 972.7 1.4 79
2017-11-01 09:00:00 -- 18 Sur 39 Sudeste 0 972.2 1 83
2017-11-01 08:00:00 -- 21 Sur 45 Sur 0 971.6 0.3 82
2017-11-01 07:00:00 -- 16 Sudeste 35 Sur 0 971.3 -0.1 83
2017-11-01 06:00:00 -- 15 Sur 32 Sur 0 971.2 -0.4 84
2017-11-01 05:00:00 -- 14 Sur 33 Sudeste 0 971.3 -0.2 85
2017-11-01 04:00:00 -- 18 Sur 36 Sudeste 0 971.4 -0.5 81
2017-11-01 03:00:00 -- 14 Sudeste 37 Sudeste 0 971.6 -0.5 73
2017-11-01 02:00:00 -- 19 Sudeste 41 Sudeste 0 971.5 -0.8 73
2017-11-01 01:00:00 -- 14 Sudeste 34 Sudeste 0 971.9 -0.1 87
2017-11-01 00:00:00 -- 18 Sudeste 42 Sudeste 0 972.1 0.5 87
2017-10-31 23:00:00 -- 17 Sudeste 33 Sur 0 972.3 1.2 84
2017-10-31 22:00:00 -- 17 Sudeste 35 Sudeste 0 972 1.2 83
2017-10-31 21:00:00 -- 9 Sur 26 Sur 0 971.6 0.9 77
2017-10-31 20:00:00 -- 10 Sur 28 Sur 0 971.1 0.9 74
2017-10-31 19:00:00 -- 10 Sur 25 Sur 0 970.8 0.5 72
2017-10-31 18:00:00 -- 9 Sur 26 Sur 0 970.7 0.3 72
2017-10-31 17:00:00 -- 13 Sur 32 Sur 0 970.2 -0.5 64
2017-10-31 16:00:00 -- 19 Sur 34 Sudeste 0 970.3 -0.5 65
2017-10-31 15:00:00 -- 21 Sur 39 Sudeste 0 970.4 -0.7 65
2017-10-31 14:00:00 -- 20 Sudeste 36 Sudeste 0 970.7 -0.7 67
2017-10-31 13:00:00 -- 17 Sudeste 36 Sudeste 0 970.8 -0.4 67
2017-10-31 12:00:00 -- 13 Sudeste 36 Sudeste 0 971.1 0.5 70
2017-10-31 11:00:00 -- 18 Sudeste 37 Sudeste 0 971.4 1.8 73
2017-10-31 10:00:00 -- 15 Sur 36 Sudeste 0 971.2 2 83
2017-10-31 09:00:00 -- 19 Sudeste 38 Sudeste 0 970.6 1.9 84
2017-10-31 08:00:00 -- 19 Sudeste 37 Sur 0 969.6 1 84
2017-10-31 07:00:00 -- 12 Sudeste 29 Sudeste 0 969.2 0.7 84
2017-10-31 06:00:00 -- 11 Sudeste 27 Sudeste 0 968.7 0.3 83
2017-10-31 05:00:00 -- 9 Sudeste 29 Sudeste 0 968.6 0.1 76
2017-10-31 04:00:00 -- 9 Sudeste 25 Sudeste 0 968.5 -0.1 67
2017-10-31 03:00:00 -- 6 Sudeste 17 Sudeste 0 968.4 -0.4 64
2017-10-31 02:00:00 -- 7 Sur 22 Sur 0 968.5 -0.2 59
2017-10-31 01:00:00 -- 5 Sur 21 Sur 0 968.6 0.2 65
2017-10-31 00:00:00 -- 6 Sur 17 Sur 0 968.8 0.8 64
2017-10-30 23:00:00 -- 3 Sudoeste 18 Sudeste 0 968.7 1 65
2017-10-30 22:00:00 -- 2 Sudoeste 14 Oeste 0 968.4 1.2 66
2017-10-30 21:00:00 -- 3 Oeste 17 Sur 0 968 1.6 63
2017-10-30 20:00:00 -- 4 Sur 19 Sur 0 967.7 1.5 57
2017-10-30 19:00:00 -- 3 Sur 14 Sudeste 0 967.2 1 54
2017-10-30 18:00:00 -- 6 Sur 18 Sur 0 966.4 -0.1 49
2017-10-30 17:00:00 -- 9 Sudeste 19 Sudeste 0 966.2 -0.6 45
2017-10-30 16:00:00 -- 2 Sur 15 Sudeste 0 966.2 -1.3 45
2017-10-30 15:00:00 -- 4 Sur 21 Sudeste 0 966.5 -1.7 45
2017-10-30 14:00:00 -- 8 Sur 17 Sur 0 966.8 -1.7 48
2017-10-30 13:00:00 -- 2 Sudoeste 14 Sudoeste 0 967.5 -1.2 53
2017-10-30 12:00:00 -- 2 Sudoeste 8 Sur 0 968.2 -0.2 57
2017-10-30 11:00:00 -- 0 Calma 9 Este 0 968.5 0.3 72
2017-10-30 10:00:00 -- 3 Este 6 Este 0 968.7 0.7 90
2017-10-30 09:00:00 -- 0 Calma 4 Este 0 968.4 0.5 99
2017-10-30 08:00:00 -- 0 Calma 3 Oeste 0 968.2 0.1 98
2017-10-30 07:00:00 -- 0 Calma 5 Oeste 0 968 -0.3 98
2017-10-30 06:00:00 -- 0 Calma 6 Nordeste 0 967.9 -0.6 98
2017-10-30 05:00:00 -- 4 Nordeste 7 Nordeste 0 968.1 -0.6 98
2017-10-30 04:00:00 -- 0 Calma 3 Noroeste 0 968.3 -0.9 96
2017-10-30 03:00:00 -- 0 Calma 6 Oeste 0 968.5 -1.1 91
2017-10-30 02:00:00 -- 4 Oeste 7 Oeste 0 968.7 -1.3 88
2017-10-30 01:00:00 -- 4 Oeste 7 Noroeste 0 969.2 -0.8 84
2017-10-30 00:00:00 -- 4 Oeste 7 Noroeste 0 969.6 -0.3 79
2017-10-29 23:00:00 -- 3 Oeste 7 Sudoeste 0 970 0.3 76
2017-10-29 22:00:00 -- 3 Oeste 8 Oeste 0 970 0.5 72
2017-10-29 21:00:00 -- 2 Oeste 10 Sudoeste 0 969.9 0.3 69
2017-10-29 20:00:00 -- 3 Sudoeste 11 Sur 0 969.7 0 64
2017-10-29 19:00:00 -- 4 Sur 12 Sudeste 0 969.5 -0.4 58
2017-10-29 18:00:00 -- 7 Sudeste 12 Sur 0 969.6 -0.8 52
2017-10-29 17:00:00 -- 4 Sudeste 14 Sudeste 0 969.7 -1.2 48
2017-10-29 16:00:00 -- 4 Sudeste 17 Sudeste 0 969.9 -2 47
2017-10-29 15:00:00 -- 9 Sudeste 24 Sudeste 0 970.4 -2.2 48
2017-10-29 14:00:00 -- 13 Sudeste 24 Sur 0 970.9 -2.1 51
2017-10-29 13:00:00 -- 13 Sudeste 29 Sudeste 0 971.9 -1.6 58
2017-10-29 12:00:00 -- 15 Sudeste 64 Sudeste 0 972.6 -0.7 62
2017-10-29 11:00:00 -- 14 Sudeste 30 Sudeste 0 973 -0.2 62
2017-10-29 10:00:00 -- 13 Sur 23 Sur 0 973.5 0.3 69
2017-10-29 09:00:00 -- 5 Sudeste 22 Sur 0 973.3 0.3 80
2017-10-29 08:00:00 -- 6 Sur 27 Sur 0 973.2 0.5 85
2017-10-29 07:00:00 -- 12 Sudeste 24 Sudeste 0 973.2 0.3 89
2017-10-29 06:00:00 -- 10 Sudeste 31 Sur 0 973 -0.2 85
2017-10-29 05:00:00 -- 5 Sur 27 Sur 0 972.7 -0.7 82
2017-10-29 04:00:00 -- 7 Sur 22 Sudeste 0 972.9 -0.7 79
2017-10-29 03:00:00 -- 7 Sudeste 22 Sur 0 973.2 -0.8 79
2017-10-29 02:00:00 -- 10 Sur 26 Sudeste 0 973.4 -0.6 84
2017-10-29 01:00:00 -- 11 Sur 34 Sudeste 0 974 0.1 85
2017-10-29 00:00:00 -- 16 Sur 32 Sur 0 974 0.4 85
2017-10-28 23:00:00 -- 13 Sur 32 Sudeste 0 974.1 0.7 85
2017-10-28 22:00:00 -- 14 Sur 36 Sur 0 973.9 0.8 88
2017-10-28 21:00:00 -- 0 Calma 6 Sudoeste 0 973.6 0.7 84
2017-10-28 20:00:00 -- 0 Calma 12 Sudoeste 0 973.4 0.7 77
2017-10-28 19:00:00 -- 4 Sudoeste 26 Sudeste 0 973.1 0.5 64
2017-10-28 18:00:00 -- 9 Sur 21 Sudeste 0 972.9 -0.2 56
2017-10-28 17:00:00 -- 6 Sur 33 Sudeste 0 972.7 -1 54
2017-10-28 16:00:00 -- 15 Sudeste 28 Sudeste 0 972.6 -1.5 51
2017-10-28 15:00:00 -- 13 Sudeste 32 Sudeste 0 973.1 -1.1 49
2017-10-28 14:00:00 -- 14 Sudeste 31 Sudeste 0 973.7 -0.7 47
2017-10-28 13:00:00 -- 13 Sudeste 31 Sudeste 0 974.1 -0.2 41
2017-10-28 12:00:00 -- 0 Calma 5 Oeste 0 974.2 0.2 56
2017-10-28 11:00:00 -- 0 Calma 6 Este 0 974.4 0.9 82
2017-10-28 10:00:00 -- 0 Calma 6 Nordeste 0 974.3 1 93
2017-10-28 09:00:00 -- 0 Calma 4 Oeste 0 974 0.7 96
2017-10-28 08:00:00 -- 0 Calma 4 Noroeste 0 973.5 -0.1 93
2017-10-28 07:00:00 -- 5 Oeste 9 Noroeste 0 973.3 -0.7 93
2017-10-28 06:00:00 -- 0 Calma 5 Oeste 0 973.3 -1.4 91
2017-10-28 05:00:00 -- 4 Nordeste 5 Este 0 973.6 -1.4 91
2017-10-28 04:00:00 -- 0 Calma 3 Noroeste 0 974 -1.5 86
2017-10-28 03:00:00 -- 0 Calma -- -- 0 974.7 -1.1 83
2017-10-28 02:00:00 -- 0 Calma -- -- 0 975 -1 78
2017-10-28 01:00:00 -- 0 Calma -- -- 0 975.5 -0.5 72
2017-10-28 00:00:00 -- 0 Calma 5 Oeste 0 975.8 -0.2 64
2017-10-27 23:00:00 -- 3 Oeste 6 Oeste 0 976 0.2 56
2017-10-27 22:00:00 -- 4 Oeste 9 Sudoeste 0 976 0.2 51
2017-10-27 21:00:00 -- 3 Oeste 6 Sudoeste 0 976 0.4 47
2017-10-27 20:00:00 -- 2 Sudoeste 9 Sudoeste 0 975.8 0 43
2017-10-27 19:00:00 -- 3 Sur 9 Sudoeste 0 975.8 -0.3 40
2017-10-27 18:00:00 -- 3 Sudoeste 12 Sudoeste 0 975.6 -1.2 37
2017-10-27 17:00:00 -- 5 Sudeste 14 Sudeste 0 975.8 -1.4 37
2017-10-27 16:00:00 -- 4 Sur 18 Sur 0 976.1 -1.9 39
2017-10-27 15:00:00 -- 8 Sudeste 23 Sur 0 976.8 -1.6 41
2017-10-27 14:00:00 -- 10 Sudeste 22 Sur 0 977.2 -1.4 42
2017-10-27 13:00:00 -- 8 Sudeste 25 Sudeste 0 978 -0.2 40
2017-10-27 12:00:00 -- 5 Sudeste 14 Sur 0 978.4 0.6 48
2017-10-27 11:00:00 -- 0 Calma 7 Este 0 978.6 1.2 69
2017-10-27 10:00:00 -- 0 Calma 5 Sudoeste 0 978.2 1.1 73
2017-10-27 09:00:00 -- 0 Calma 7 Oeste 0 977.8 0.9 67
2017-10-27 08:00:00 -- 0 Calma 15 Sudeste 0 977.4 0.4 65
2017-10-27 07:00:00 -- 4 Este 27 Sur 0 977.1 0 60
2017-10-27 06:00:00 -- 18 Sudeste 32 Sudeste 0 976.9 -0.4 56
2017-10-27 05:00:00 -- 12 Sudeste 26 Sudeste 0 977 -0.4 63
2017-10-27 04:00:00 -- 17 Sudeste 27 Sur 0 977.1 -1.1 66
2017-10-27 03:00:00 -- 18 Sudeste 34 Sur 0 977.3 -0.9 68
2017-10-27 02:00:00 -- 21 Sur 37 Sur 0 977.4 -0.6 70
2017-10-27 01:00:00 -- 12 Sudeste 24 Sudeste 0 978.2 0.4 70
2017-10-27 00:00:00 -- 11 Sudeste 25 Sur 0 978.2 0.8 66
2017-10-26 23:00:00 -- 9 Sudeste 26 Sur 0 978 1.1 61
2017-10-26 22:00:00 -- 4 Sur 15 Sur 0 977.8 1.4 56
2017-10-26 21:00:00 -- 0 Calma 14 Sur 0 977.4 1.1 52
2017-10-26 20:00:00 -- 4 Sudoeste 17 Sur 0 976.9 0.6 50
2017-10-26 19:00:00 -- 6 Sur 15 Sur 0 976.4 0.1 45
2017-10-26 18:00:00 -- 5 Sur 22 Sur 0 976.3 -0.4 42
2017-10-26 17:00:00 -- 7 Sur 18 Sur 0 976.3 -0.6 41
2017-10-26 16:00:00 -- 9 Sur 25 Sur 0 976.3 -1.1 41
2017-10-26 15:00:00 -- 11 Sur 32 Sudeste 0 976.7 -0.9 41
2017-10-26 14:00:00 -- 14 Sudeste 32 Sur 0 976.9 -0.6 42
2017-10-26 13:00:00 -- 17 Sudeste 36 Sudeste 0 977.4 0.3 44
2017-10-26 12:00:00 -- 16 Sur 33 Sudeste 0 977.6 0.7 45
2017-10-26 11:00:00 -- 18 Sudeste 31 Sudeste 0 977.5 1 47
2017-10-26 10:00:00 -- 12 Sudeste 25 Sudeste 0 977.1 0.6 52
2017-10-26 09:00:00 -- 12 Sudeste 25 Sur 0 976.9 0.7 60
2017-10-26 08:00:00 -- 16 Sudeste 24 Sur 0 976.5 0.2 55
2017-10-26 07:00:00 -- 13 Sudeste 25 Sur 0 976.5 -0.1 58
2017-10-26 06:00:00 -- 15 Sur 26 Sudeste 0 976.2 -0.6 60
2017-10-26 05:00:00 -- 8 Sur 23 Sudeste 0 976.3 -0.6 61
2017-10-26 04:00:00 -- 10 Sudeste 20 Sudeste 0 976.6 -0.4 63
2017-10-26 03:00:00 -- 9 Sudeste 21 Sudeste 0 976.8 -0.2 65
2017-10-26 02:00:00 -- 5 Este 14 Nordeste 0 976.9 0.1 60
2017-10-26 01:00:00 -- 8 Nordeste 22 Este 0 977 0.6 55
2017-10-26 00:00:00 -- 3 Este 16 Nordeste 0 977 0.9 51